createdAt,value
2018-04-27T00:01:01.015Z,29.68
2018-04-27T00:03:32.978Z,29.65
2018-04-27T00:06:05.278Z,29.65
2018-04-27T00:08:37.345Z,29.58
2018-04-27T00:11:09.286Z,29.47
2018-04-27T00:13:40.971Z,29.38
2018-04-27T00:16:13.057Z,29.33
2018-04-27T00:18:44.984Z,29.34
2018-04-27T00:21:16.710Z,29.27
2018-04-27T00:23:47.546Z,29.21
2018-04-27T00:28:57.269Z,29.16
2018-04-27T00:31:29.162Z,29.10
2018-04-27T00:34:01.082Z,29.04
2018-04-27T00:36:32.993Z,28.97
2018-04-27T00:39:04.815Z,28.94
2018-04-27T00:41:35.585Z,28.95
2018-04-27T00:44:07.573Z,28.92
2018-04-27T00:46:39.488Z,28.89
2018-04-27T00:49:11.719Z,28.81
2018-04-27T00:51:43.694Z,28.78
2018-04-27T00:54:15.583Z,28.72
2018-04-27T00:56:47.507Z,28.66
2018-04-27T00:59:19.079Z,28.59
2018-04-27T01:01:50.810Z,28.57
2018-04-27T01:04:22.552Z,28.51
2018-04-27T01:07:53.555Z,28.46
2018-04-27T01:10:25.374Z,28.36
2018-04-27T01:12:57.016Z,28.30
2018-04-27T01:15:28.579Z,28.28
2018-04-27T01:18:00.182Z,28.25
2018-04-27T01:20:31.588Z,28.22
2018-04-27T01:23:03.303Z,28.18
2018-04-27T01:26:26.597Z,28.13
2018-04-27T01:28:59.028Z,28.10
2018-04-27T01:31:30.986Z,28.05
2018-04-27T01:34:31.579Z,27.93
2018-04-27T01:37:04.816Z,27.93
2018-04-27T01:39:37.406Z,27.88
2018-04-27T01:42:09.455Z,27.85
2018-04-27T01:44:42.091Z,27.82
2018-04-27T01:47:13.515Z,27.75
2018-04-27T01:49:45.049Z,27.65
2018-04-27T01:52:17.054Z,27.63
2018-04-27T01:54:49.464Z,27.62
2018-04-27T01:57:21.535Z,27.52
2018-04-27T01:59:53.741Z,27.42
2018-04-27T02:02:25.555Z,27.41
2018-04-27T02:05:45.446Z,27.24
2018-04-27T02:08:17.502Z,27.22
2018-04-27T02:10:49.310Z,27.15
2018-04-27T02:13:21.224Z,27.09
2018-04-27T02:15:53.201Z,27.02
2018-04-27T02:18:24.937Z,26.94
2018-04-27T02:20:56.757Z,26.89
2018-04-27T02:23:28.423Z,26.83
2018-04-27T02:26:00.096Z,26.77
2018-04-27T02:28:30.889Z,26.73
2018-04-27T02:31:02.999Z,26.69
2018-04-27T02:33:34.542Z,26.64
2018-04-27T02:36:08.234Z,26.65
2018-04-27T02:38:40.042Z,26.59
2018-04-27T02:41:11.878Z,26.57
2018-04-27T02:43:44.260Z,26.45
2018-04-27T02:46:17.073Z,26.39
2018-04-27T02:48:49.295Z,26.33
2018-04-27T02:51:21.015Z,26.27
2018-04-27T02:53:53.073Z,26.23
2018-04-27T02:56:25.042Z,26.21
2018-04-27T02:58:57.089Z,26.14
2018-04-27T03:01:28.864Z,26.10
2018-04-27T03:04:01.229Z,26.09
2018-04-27T03:06:33.049Z,26.01
2018-04-27T03:09:04.507Z,25.97
2018-04-27T03:11:35.011Z,25.91
2018-04-27T03:14:06.983Z,25.85
2018-04-27T03:16:38.509Z,25.78
2018-04-27T03:19:10.261Z,25.72
2018-04-27T03:21:42.023Z,25.64
2018-04-27T03:24:13.519Z,25.64
2018-04-27T03:26:45.242Z,25.55
2018-04-27T03:29:17.274Z,25.49
2018-04-27T03:31:49.019Z,25.43
2018-04-27T03:34:21.091Z,25.39
2018-04-27T03:36:52.789Z,25.40
2018-04-27T03:39:24.881Z,25.38
2018-04-27T03:41:56.739Z,25.32
2018-04-27T03:44:28.417Z,25.30
2018-04-27T03:47:00.155Z,25.26
2018-04-27T03:49:32.389Z,25.16
2018-04-27T03:52:04.529Z,25.11
2018-04-27T03:54:36.454Z,25.10
2018-04-27T03:57:08.513Z,25.03
2018-04-27T03:59:51.435Z,24.93
2018-04-27T04:02:34.916Z,24.91
2018-04-27T04:05:17.520Z,24.90
2018-04-27T04:07:49.597Z,24.95
2018-04-27T04:10:21.905Z,24.95
2018-04-27T04:15:38.526Z,24.78
2018-04-27T04:18:11.382Z,24.77
2018-04-27T04:20:44.232Z,24.75
2018-04-27T04:23:16.440Z,24.67
2018-04-27T04:25:48.755Z,24.58
2018-04-27T04:28:20.746Z,24.51
2018-04-27T04:30:53.765Z,24.47
2018-04-27T04:33:27.576Z,24.49
2018-04-27T04:35:59.369Z,24.47
2018-04-27T04:38:31.502Z,24.50
2018-04-27T04:41:03.004Z,24.48
2018-04-27T04:43:34.483Z,24.42
2018-04-27T04:46:06.436Z,24.41
2018-04-27T04:48:39.370Z,24.38
2018-04-27T04:51:12.396Z,24.32
2018-04-27T04:53:44.439Z,24.28
2018-04-27T04:56:16.498Z,24.28
2018-04-27T04:58:48.816Z,24.22
2018-04-27T05:01:20.502Z,24.17
2018-04-27T05:03:52.376Z,24.13
2018-04-27T05:06:24.041Z,24.06
2018-04-27T05:08:56.187Z,24.01
2018-04-27T05:13:54.146Z,24.05
2018-04-27T05:16:26.247Z,24.09
2018-04-27T05:19:05.409Z,24.04
2018-04-27T05:21:36.924Z,24.01
2018-04-27T05:24:08.717Z,24.03
2018-04-27T05:26:40.403Z,23.98
2018-04-27T05:29:12.582Z,23.98
2018-04-27T05:31:44.467Z,23.96
2018-04-27T05:34:16.805Z,23.91
2018-04-27T05:36:48.638Z,23.94
2018-04-27T05:39:20.527Z,23.89
2018-04-27T05:41:52.414Z,23.88
2018-04-27T05:44:24.111Z,23.85
2018-04-27T05:46:56.211Z,23.82
2018-04-27T05:49:28.379Z,23.84
2018-04-27T05:52:00.043Z,23.81
2018-04-27T05:54:32.063Z,23.75
2018-04-27T05:57:03.758Z,23.69
2018-04-27T05:59:35.527Z,23.62
2018-04-27T06:02:09.668Z,23.56
2018-04-27T06:04:41.492Z,23.56
2018-04-27T06:07:13.056Z,23.57
2018-04-27T06:09:44.741Z,23.53
2018-04-27T06:12:16.395Z,23.50
2018-04-27T06:14:48.103Z,23.45
2018-04-27T06:17:19.657Z,23.39
2018-04-27T06:19:51.934Z,23.32
2018-04-27T06:22:25.308Z,23.24
2018-04-27T06:24:57.218Z,23.21
2018-04-27T06:27:28.895Z,23.20
2018-04-27T06:30:01.308Z,23.19
2018-04-27T06:32:34.304Z,23.09
2018-04-27T06:35:07.720Z,23.08
2018-04-27T06:37:41.532Z,23.09
2018-04-27T06:40:14.739Z,23.06
2018-04-27T06:42:48.735Z,23.06
2018-04-27T06:45:22.258Z,23.09
2018-04-27T06:47:55.744Z,23.05
2018-04-27T06:50:28.508Z,23.02
2018-04-27T06:53:01.919Z,23.02
2018-04-27T06:55:35.667Z,23.05
2018-04-27T06:58:08.683Z,23.08
2018-04-27T07:00:42.565Z,23.13
2018-04-27T07:03:15.404Z,23.10
2018-04-27T07:05:48.437Z,23.06
2018-04-27T07:08:21.953Z,22.94
2018-04-27T07:10:54.446Z,22.91
2018-04-27T07:13:27.257Z,22.91
2018-04-27T07:16:00.455Z,22.95
2018-04-27T07:18:33.625Z,22.90
2018-04-27T07:21:06.680Z,22.89
2018-04-27T07:23:39.428Z,22.86
2018-04-27T07:26:13.049Z,22.82
2018-04-27T07:28:45.990Z,22.80
2018-04-27T07:31:19.287Z,22.75
2018-04-27T07:33:52.500Z,22.72
2018-04-27T07:36:26.472Z,22.71
2018-04-27T07:38:59.544Z,22.65
2018-04-27T07:41:33.072Z,22.60
2018-04-27T07:44:06.774Z,22.54
2018-04-27T07:46:39.526Z,22.51
2018-04-27T07:49:12.485Z,22.52
2018-04-27T07:51:45.550Z,22.51
2018-04-27T07:54:17.957Z,22.56
2018-04-27T07:56:51.330Z,22.60
2018-04-27T07:59:23.941Z,22.61
2018-04-27T08:01:56.492Z,22.56
2018-04-27T08:04:29.456Z,22.50
2018-04-27T08:07:02.625Z,22.54
2018-04-27T08:09:35.450Z,22.50
2018-04-27T08:12:08.627Z,22.39
2018-04-27T08:17:22.422Z,22.32
2018-04-27T08:19:55.563Z,22.30
2018-04-27T08:22:28.039Z,22.32
2018-04-27T08:25:00.940Z,22.36
2018-04-27T08:27:33.547Z,22.38
2018-04-27T08:30:07.062Z,22.38
2018-04-27T08:32:40.013Z,22.40
2018-04-27T08:35:12.931Z,22.35
2018-04-27T08:37:45.854Z,22.23
2018-04-27T08:40:19.017Z,22.10
2018-04-27T08:42:52.392Z,22.09
2018-04-27T08:45:25.619Z,22.12
2018-04-27T08:47:58.480Z,22.10
2018-04-27T08:50:31.708Z,22.14
2018-04-27T08:53:04.412Z,22.16
2018-04-27T08:55:36.968Z,22.20
2018-04-27T08:58:10.291Z,22.23
2018-04-27T09:00:43.266Z,22.15
2018-04-27T09:03:16.258Z,22.03
2018-04-27T09:05:49.759Z,21.91
2018-04-27T09:08:22.752Z,21.83
2018-04-27T09:10:56.548Z,21.72
2018-04-27T09:13:30.619Z,21.63
2018-04-27T09:16:03.374Z,21.64
2018-04-27T09:18:36.404Z,21.63
2018-04-27T09:21:09.719Z,21.61
2018-04-27T09:23:42.367Z,21.58
2018-04-27T09:26:15.709Z,21.53
2018-04-27T09:28:48.137Z,21.45
2018-04-27T09:31:21.287Z,21.43
2018-04-27T09:33:54.657Z,21.39
2018-04-27T09:36:28.386Z,21.28
2018-04-27T09:39:01.026Z,21.28
2018-04-27T09:41:34.060Z,21.24
2018-04-27T09:44:06.602Z,21.24
2018-04-27T09:46:40.470Z,21.24
2018-04-27T09:49:13.532Z,21.22
2018-04-27T09:51:47.298Z,21.12
2018-04-27T09:54:20.229Z,21.14
2018-04-27T09:56:53.443Z,21.08
2018-04-27T09:59:26.396Z,21.04
2018-04-27T10:01:59.228Z,21.02
2018-04-27T10:04:32.414Z,20.99
2018-04-27T10:07:05.719Z,20.94
2018-04-27T10:09:38.975Z,20.98
2018-04-27T10:12:12.457Z,20.95
2018-04-27T10:14:45.468Z,20.84
2018-04-27T10:17:18.673Z,20.83
2018-04-27T10:19:52.226Z,20.85
2018-04-27T10:22:25.511Z,20.83
2018-04-27T10:24:58.512Z,20.76
2018-04-27T10:27:32.522Z,20.75
2018-04-27T10:30:05.216Z,20.67
2018-04-27T10:32:38.293Z,20.66
2018-04-27T10:35:11.382Z,20.63
2018-04-27T10:37:44.487Z,20.63
2018-04-27T10:40:17.473Z,20.56
2018-04-27T10:42:50.844Z,20.56
2018-04-27T10:45:23.487Z,20.56
2018-04-27T10:47:56.588Z,20.60
2018-04-27T10:50:29.858Z,20.61
2018-04-27T10:53:03.938Z,20.63
2018-04-27T10:55:37.542Z,20.71
2018-04-27T10:58:10.419Z,20.75
2018-04-27T11:00:43.433Z,20.69
2018-04-27T11:03:16.777Z,20.69
2018-04-27T11:05:49.707Z,20.71
2018-04-27T11:08:23.520Z,20.66
2018-04-27T11:10:57.006Z,20.62
2018-04-27T11:13:30.724Z,20.60
2018-04-27T11:16:03.927Z,20.52
2018-04-27T11:18:37.718Z,20.47
2018-04-27T11:21:11.920Z,20.46
2018-04-27T11:23:45.021Z,20.43
2018-04-27T11:26:18.454Z,20.43
2018-04-27T11:28:51.391Z,20.43
2018-04-27T11:31:24.082Z,20.40
2018-04-27T11:33:57.515Z,20.33
2018-04-27T11:36:30.676Z,20.29
2018-04-27T11:39:03.649Z,20.20
2018-04-27T11:41:36.941Z,20.18
2018-04-27T11:44:09.948Z,20.22
2018-04-27T11:46:43.421Z,20.27
2018-04-27T11:49:16.627Z,20.20
2018-04-27T11:51:48.917Z,20.19
2018-04-27T11:54:22.387Z,20.13
2018-04-27T11:56:55.610Z,20.12
2018-04-27T11:59:29.477Z,20.11
2018-04-27T12:02:03.017Z,20.13
2018-04-27T12:04:35.511Z,20.17
2018-04-27T12:07:08.422Z,20.15
2018-04-27T12:09:41.413Z,20.13
2018-04-27T12:12:14.566Z,20.12
2018-04-27T12:14:47.399Z,20.09
2018-04-27T12:17:20.215Z,20.11
2018-04-27T12:19:52.697Z,20.10
2018-04-27T12:22:26.060Z,20.07
2018-04-27T12:24:59.310Z,20.07
2018-04-27T12:27:31.664Z,20.11
2018-04-27T12:30:04.468Z,20.13
2018-04-27T12:32:37.519Z,20.11
2018-04-27T12:35:10.626Z,20.11
2018-04-27T12:37:43.998Z,20.11
2018-04-27T12:40:16.599Z,20.06
2018-04-27T12:42:49.584Z,20.00
2018-04-27T12:45:22.393Z,19.97
2018-04-27T12:47:55.296Z,19.98
2018-04-27T12:50:28.329Z,19.95
2018-04-27T12:53:01.505Z,19.90
2018-04-27T12:55:34.748Z,19.90
2018-04-27T12:58:06.326Z,19.90
2018-04-27T13:00:39.373Z,19.88
2018-04-27T13:03:12.424Z,19.85
2018-04-27T13:05:46.061Z,19.87
2018-04-27T13:08:18.768Z,19.84
2018-04-27T13:10:51.639Z,19.84
2018-04-27T13:13:24.440Z,19.85
2018-04-27T13:15:57.045Z,19.84
2018-04-27T13:18:30.456Z,19.81
2018-04-27T13:21:03.384Z,19.81
2018-04-27T13:23:36.630Z,19.81
2018-04-27T13:26:09.765Z,19.84
2018-04-27T13:28:42.964Z,19.88
2018-04-27T13:31:15.938Z,19.86
2018-04-27T13:33:48.572Z,19.87
2018-04-27T13:36:21.664Z,19.92
2018-04-27T13:38:54.151Z,19.93
2018-04-27T13:41:27.305Z,19.88
2018-04-27T13:44:00.435Z,19.86
2018-04-27T13:46:33.203Z,19.86
2018-04-27T13:49:06.055Z,19.86
2018-04-27T13:51:39.464Z,19.87
2018-04-27T13:54:12.421Z,19.91
2018-04-27T13:56:45.070Z,19.91
2018-04-27T13:59:18.097Z,19.93
2018-04-27T14:01:51.445Z,19.97
2018-04-27T14:04:24.454Z,19.99
2018-04-27T14:06:57.781Z,19.99
2018-04-27T14:09:31.301Z,20.02
2018-04-27T14:12:04.017Z,20.07
2018-04-27T14:14:36.693Z,20.07
2018-04-27T14:17:09.521Z,20.06
2018-04-27T14:19:42.704Z,20.00
2018-04-27T14:22:16.515Z,19.96
2018-04-27T14:24:50.206Z,19.95
2018-04-27T14:27:22.692Z,19.93
2018-04-27T14:29:55.023Z,19.91
2018-04-27T14:32:28.521Z,19.94
2018-04-27T14:35:02.348Z,19.96
2018-04-27T14:37:35.405Z,19.96
2018-04-27T14:40:08.824Z,19.97
2018-04-27T14:42:42.632Z,19.96
2018-04-27T14:45:15.515Z,19.95
2018-04-27T14:47:48.463Z,19.91
2018-04-27T14:50:21.410Z,19.91
2018-04-27T14:52:54.422Z,19.92
2018-04-27T14:55:28.469Z,19.93
2018-04-27T14:58:01.788Z,19.92
2018-04-27T15:00:34.741Z,19.92
2018-04-27T15:03:08.220Z,19.91
2018-04-27T15:05:41.450Z,19.92
2018-04-27T15:08:14.586Z,19.94
2018-04-27T15:10:47.569Z,19.94
2018-04-27T15:13:21.550Z,19.99
2018-04-27T15:15:54.438Z,20.01
2018-04-27T15:18:27.541Z,20.04
2018-04-27T15:21:00.462Z,20.04
2018-04-27T15:23:33.915Z,20.06
2018-04-27T15:26:07.405Z,20.07
2018-04-27T15:28:39.946Z,20.06
2018-04-27T15:31:13.689Z,20.06
2018-04-27T15:33:48.656Z,20.08
2018-04-27T15:36:21.947Z,20.10
2018-04-27T15:38:54.741Z,20.09
2018-04-27T15:41:28.553Z,20.09
2018-04-27T15:44:00.470Z,20.13
2018-04-27T15:46:33.525Z,20.16
2018-04-27T15:49:06.892Z,20.20
2018-04-27T15:51:39.526Z,20.25
2018-04-27T15:54:12.632Z,20.29
2018-04-27T15:56:45.167Z,20.36
2018-04-27T15:59:18.053Z,20.40
2018-04-27T16:01:50.436Z,20.44
2018-04-27T16:04:24.241Z,20.50
2018-04-27T16:06:57.107Z,20.58
2018-04-27T16:09:30.483Z,20.63
2018-04-27T16:12:03.397Z,20.65
2018-04-27T16:14:35.948Z,20.68
2018-04-27T16:17:09.304Z,20.75
2018-04-27T16:19:42.161Z,20.79
2018-04-27T16:22:15.410Z,20.80
2018-04-27T16:24:48.479Z,20.83
2018-04-27T16:27:21.331Z,20.90
2018-04-27T16:29:54.029Z,20.91
2018-04-27T16:32:27.314Z,20.92
2018-04-27T16:35:00.704Z,20.96
2018-04-27T16:37:34.085Z,21.00
2018-04-27T16:40:08.520Z,21.05
2018-04-27T16:42:42.667Z,21.08
2018-04-27T16:45:16.919Z,21.11
2018-04-27T16:47:48.696Z,21.14
2018-04-27T16:50:21.875Z,21.15
2018-04-27T16:52:53.532Z,21.19
2018-04-27T16:55:25.012Z,21.21
2018-04-27T16:57:56.937Z,21.24
2018-04-27T17:00:28.491Z,21.28
2018-04-27T17:03:00.179Z,21.35
2018-04-27T17:05:31.612Z,21.39
2018-04-27T17:08:03.562Z,21.41
2018-04-27T17:10:35.410Z,21.43
2018-04-27T17:13:07.321Z,21.46
2018-04-27T17:15:38.950Z,21.48
2018-04-27T17:18:10.535Z,21.47
2018-04-27T17:20:42.431Z,21.48
2018-04-27T17:23:14.418Z,21.48
2018-04-27T17:25:45.965Z,21.49
2018-04-27T17:28:20.059Z,21.47
2018-04-27T17:30:53.430Z,21.47
2018-04-27T17:33:25.328Z,21.49
2018-04-27T17:35:56.955Z,21.49
2018-04-27T17:38:28.585Z,21.53
2018-04-27T17:41:02.547Z,21.55
2018-04-27T17:43:34.254Z,21.62
2018-04-27T17:46:05.964Z,21.65
2018-04-27T17:48:37.326Z,21.71
2018-04-27T17:51:08.946Z,21.74
2018-04-27T17:53:41.060Z,21.78
2018-04-27T17:56:12.987Z,21.83
2018-04-27T17:58:45.063Z,21.89
2018-04-27T18:01:17.032Z,21.95
2018-04-27T18:03:48.933Z,21.97
2018-04-27T18:06:21.056Z,21.99
2018-04-27T18:08:52.563Z,22.02
2018-04-27T18:11:23.058Z,22.03
2018-04-27T18:13:54.981Z,22.02
2018-04-27T18:16:26.553Z,22.02
2018-04-27T18:18:58.335Z,22.02
2018-04-27T18:21:29.967Z,22.07
2018-04-27T18:24:01.677Z,22.16
2018-04-27T18:26:33.301Z,22.26
2018-04-27T18:29:04.951Z,22.33
2018-04-27T18:31:36.498Z,22.39
2018-04-27T18:34:10.549Z,22.43
2018-04-27T18:36:44.442Z,22.45
2018-04-27T18:39:18.219Z,22.49
2018-04-27T18:41:51.340Z,22.53
2018-04-27T18:44:25.352Z,22.53
2018-04-27T18:46:58.549Z,22.57
2018-04-27T18:49:32.558Z,22.65
2018-04-27T18:52:05.616Z,22.72
2018-04-27T18:54:38.946Z,22.76
2018-04-27T18:57:11.891Z,22.76
2018-04-27T18:59:51.869Z,22.78
2018-04-27T19:02:24.496Z,22.84
2018-04-27T19:04:57.431Z,22.87
2018-04-27T19:07:30.452Z,22.90
2018-04-27T19:10:03.110Z,22.91
2018-04-27T19:12:35.943Z,22.94
2018-04-27T19:15:08.987Z,22.96
2018-04-27T19:17:42.180Z,22.99
2018-04-27T19:20:15.080Z,23.02
2018-04-27T19:22:48.139Z,23.04
2018-04-27T19:25:21.433Z,23.08
2018-04-27T19:27:54.462Z,23.11
2018-04-27T19:30:27.701Z,23.18
2018-04-27T19:33:01.355Z,23.23
2018-04-27T19:35:34.557Z,23.32
2018-04-27T19:38:07.346Z,23.41
2018-04-27T19:40:41.247Z,23.49
2018-04-27T19:43:14.090Z,23.55
2018-04-27T19:45:47.113Z,23.54
2018-04-27T19:48:20.514Z,23.54
2018-04-27T19:50:53.694Z,23.63
2018-04-27T19:53:27.032Z,23.72
2018-04-27T19:56:00.551Z,23.82
2018-04-27T19:58:35.439Z,23.90
2018-04-27T20:01:08.674Z,23.99
2018-04-27T20:03:42.170Z,24.10
2018-04-27T20:06:15.433Z,24.21
2018-04-27T20:08:47.981Z,24.30
2018-04-27T20:11:21.094Z,24.37
2018-04-27T20:13:54.157Z,24.44
2018-04-27T20:17:09.447Z,24.45
2018-04-27T20:19:46.381Z,24.54
2018-04-27T20:22:22.399Z,24.65
2018-04-27T20:24:57.398Z,24.72
2018-04-27T20:30:35.573Z,24.84
2018-04-27T20:33:10.296Z,24.89
2018-04-27T20:35:43.497Z,24.92
2018-04-27T20:38:22.920Z,24.90
2018-04-27T20:40:55.663Z,24.94
2018-04-27T20:43:29.246Z,24.96
2018-04-27T20:46:02.638Z,25.03
2018-04-27T20:48:35.616Z,25.02
2018-04-27T20:51:10.498Z,25.03
2018-04-27T20:54:00.848Z,25.09
2018-04-27T20:59:38.569Z,25.26
2018-04-27T21:02:11.372Z,25.34
2018-04-27T21:04:44.247Z,25.43
2018-04-27T21:07:17.941Z,25.48
2018-04-27T21:09:51.039Z,25.48
2018-04-27T21:12:23.373Z,25.53
2018-04-27T21:14:57.514Z,25.62
2018-04-27T21:17:29.915Z,25.65
2018-04-27T21:20:02.374Z,25.71
2018-04-27T21:24:08.225Z,25.78
2018-04-27T21:26:40.508Z,25.82
2018-04-27T21:29:12.454Z,25.82
2018-04-27T21:31:45.086Z,25.83
2018-04-27T21:34:17.040Z,25.87
2018-04-27T21:36:56.221Z,25.89
2018-04-27T21:39:36.449Z,25.94
2018-04-27T21:45:14.534Z,25.96
2018-04-27T21:47:50.218Z,25.97
2018-04-27T21:50:24.754Z,26.01
2018-04-27T21:52:57.251Z,26.13
2018-04-27T21:55:28.957Z,26.23
2018-04-27T21:58:06.094Z,26.30
2018-04-27T22:00:39.398Z,26.40
2018-04-27T22:03:49.335Z,26.41
2018-04-27T22:06:23.099Z,26.44
2018-04-27T22:09:10.448Z,26.51
2018-04-27T22:11:46.961Z,26.61
2018-04-27T22:14:36.929Z,26.68
2018-04-27T22:17:18.658Z,26.77
2018-04-27T22:19:50.247Z,26.81
2018-04-27T22:22:23.394Z,26.85
2018-04-27T22:24:55.581Z,26.91
2018-04-27T22:27:31.316Z,27.00
2018-04-27T22:30:05.254Z,27.09
2018-04-27T22:32:39.522Z,27.11
2018-04-27T22:35:16.502Z,27.11
2018-04-27T22:37:49.572Z,27.16
2018-04-27T22:43:41.743Z,27.27
2018-04-27T22:46:14.442Z,27.26
2018-04-27T22:48:50.249Z,27.24
2018-04-27T22:51:27.470Z,27.23
2018-04-27T22:54:02.214Z,27.27
2018-04-27T22:56:48.145Z,27.29
2018-04-27T23:02:06.884Z,27.12
2018-04-27T23:04:38.780Z,27.11
2018-04-27T23:07:10.293Z,27.10
2018-04-27T23:09:41.963Z,27.11
2018-04-27T23:12:14.257Z,27.17
2018-04-27T23:14:49.014Z,27.24
2018-04-27T23:17:21.476Z,27.31
2018-04-27T23:19:56.809Z,27.37
2018-04-27T23:22:42.073Z,27.37
2018-04-27T23:25:31.327Z,27.33
2018-04-27T23:28:02.973Z,27.32
2018-04-27T23:30:37.329Z,27.38
2018-04-27T23:33:08.870Z,27.48
2018-04-27T23:38:47.591Z,27.54
2018-04-27T23:41:19.015Z,27.57
2018-04-27T23:43:50.784Z,27.62
2018-04-27T23:46:26.242Z,27.68
2018-04-27T23:48:57.860Z,27.72
2018-04-27T23:51:29.564Z,27.76
2018-04-27T23:54:01.958Z,27.77
2018-04-27T23:56:36.664Z,27.73
2018-04-27T23:59:08.493Z,27.64
